sensor_id;sensor_type;location;lat;lon;timestamp;P1;durP1;ratioP1;P2;durP2;ratioP2
35990;SDS011;22064;42.672;23.282;2023-05-10T00:02:09;18.33;;;9.60;;
35990;SDS011;22064;42.672;23.282;2023-05-10T00:04:35;18.92;;;10.07;;
35990;SDS011;22064;42.672;23.282;2023-05-10T00:07:01;18.00;;;10.13;;
35990;SDS011;22064;42.672;23.282;2023-05-10T00:09:27;18.55;;;10.15;;
35990;SDS011;22064;42.672;23.282;2023-05-10T00:11:53;20.35;;;10.68;;
35990;SDS011;22064;42.672;23.282;2023-05-10T00:14:19;20.48;;;10.60;;
35990;SDS011;22064;42.672;23.282;2023-05-10T00:16:44;19.13;;;10.43;;
35990;SDS011;22064;42.672;23.282;2023-05-10T00:19:10;20.15;;;10.57;;
35990;SDS011;22064;42.672;23.282;2023-05-10T00:21:36;21.65;;;11.10;;
35990;SDS011;22064;42.672;23.282;2023-05-10T00:24:02;22.67;;;10.95;;
35990;SDS011;22064;42.672;23.282;2023-05-10T00:26:28;21.48;;;10.43;;
35990;SDS011;22064;42.672;23.282;2023-05-10T00:28:55;18.73;;;10.75;;
35990;SDS011;22064;42.672;23.282;2023-05-10T00:31:22;18.98;;;10.07;;
35990;SDS011;22064;42.672;23.282;2023-05-10T00:33:49;18.38;;;10.05;;
35990;SDS011;22064;42.672;23.282;2023-05-10T00:36:15;20.15;;;10.35;;
35990;SDS011;22064;42.672;23.282;2023-05-10T00:38:41;20.10;;;10.48;;
35990;SDS011;22064;42.672;23.282;2023-05-10T00:41:07;19.83;;;10.77;;
35990;SDS011;22064;42.672;23.282;2023-05-10T00:43:35;18.77;;;10.52;;
35990;SDS011;22064;42.672;23.282;2023-05-10T00:46:03;19.45;;;10.88;;
35990;SDS011;22064;42.672;23.282;2023-05-10T00:48:29;20.00;;;11.00;;
35990;SDS011;22064;42.672;23.282;2023-05-10T00:50:55;21.13;;;11.15;;
35990;SDS011;22064;42.672;23.282;2023-05-10T00:53:21;18.10;;;10.45;;
35990;SDS011;22064;42.672;23.282;2023-05-10T00:55:47;19.15;;;11.13;;
35990;SDS011;22064;42.672;23.282;2023-05-10T00:58:13;21.98;;;12.15;;
35990;SDS011;22064;42.672;23.282;2023-05-10T01:00:41;21.05;;;11.48;;
35990;SDS011;22064;42.672;23.282;2023-05-10T01:03:10;20.13;;;11.35;;
35990;SDS011;22064;42.672;23.282;2023-05-10T01:05:37;21.38;;;11.32;;
35990;SDS011;22064;42.672;23.282;2023-05-10T01:08:03;19.08;;;10.57;;
35990;SDS011;22064;42.672;23.282;2023-05-10T01:10:29;19.02;;;10.50;;
35990;SDS011;22064;42.672;23.282;2023-05-10T01:12:56;20.88;;;11.40;;
35990;SDS011;22064;42.672;23.282;2023-05-10T01:15:22;21.10;;;11.70;;
35990;SDS011;22064;42.672;23.282;2023-05-10T01:17:49;20.65;;;11.50;;
35990;SDS011;22064;42.672;23.282;2023-05-10T01:20:15;20.65;;;11.65;;
35990;SDS011;22064;42.672;23.282;2023-05-10T01:27:54;20.75;;;12.35;;
35990;SDS011;22064;42.672;23.282;2023-05-10T01:40:48;18.27;;;10.30;;
35990;SDS011;22064;42.672;23.282;2023-05-10T01:43:19;19.88;;;10.13;;
35990;SDS011;22064;42.672;23.282;2023-05-10T01:48:36;16.63;;;8.85;;
35990;SDS011;22064;42.672;23.282;2023-05-10T01:51:05;17.20;;;8.90;;
35990;SDS011;22064;42.672;23.282;2023-05-10T01:53:33;14.55;;;8.32;;
35990;SDS011;22064;42.672;23.282;2023-05-10T01:56:03;20.98;;;8.63;;
35990;SDS011;22064;42.672;23.282;2023-05-10T01:58:31;13.77;;;7.55;;
35990;SDS011;22064;42.672;23.282;2023-05-10T02:01:00;14.05;;;7.80;;
35990;SDS011;22064;42.672;23.282;2023-05-10T02:03:28;11.98;;;7.35;;
35990;SDS011;22064;42.672;23.282;2023-05-10T02:05:56;12.75;;;7.68;;
35990;SDS011;22064;42.672;23.282;2023-05-10T02:08:23;14.18;;;7.97;;
35990;SDS011;22064;42.672;23.282;2023-05-10T02:10:51;12.43;;;7.53;;
35990;SDS011;22064;42.672;23.282;2023-05-10T02:13:18;12.68;;;7.38;;
35990;SDS011;22064;42.672;23.282;2023-05-10T02:15:46;15.52;;;7.50;;
35990;SDS011;22064;42.672;23.282;2023-05-10T02:18:14;12.95;;;7.45;;
35990;SDS011;22064;42.672;23.282;2023-05-10T02:20:41;13.18;;;6.80;;
35990;SDS011;22064;42.672;23.282;2023-05-10T02:25:37;14.43;;;7.35;;
35990;SDS011;22064;42.672;23.282;2023-05-10T02:28:04;13.63;;;6.97;;
35990;SDS011;22064;42.672;23.282;2023-05-10T02:30:32;11.65;;;6.63;;
35990;SDS011;22064;42.672;23.282;2023-05-10T02:33:00;12.15;;;7.32;;
35990;SDS011;22064;42.672;23.282;2023-05-10T02:35:28;12.25;;;6.35;;
35990;SDS011;22064;42.672;23.282;2023-05-10T02:37:54;13.70;;;6.18;;
35990;SDS011;22064;42.672;23.282;2023-05-10T02:40:24;12.98;;;6.22;;
35990;SDS011;22064;42.672;23.282;2023-05-10T02:42:52;13.15;;;6.22;;
35990;SDS011;22064;42.672;23.282;2023-05-10T02:45:23;12.35;;;6.55;;
35990;SDS011;22064;42.672;23.282;2023-05-10T02:47:53;13.00;;;6.80;;
35990;SDS011;22064;42.672;23.282;2023-05-10T02:50:20;10.45;;;6.65;;
35990;SDS011;22064;42.672;23.282;2023-05-10T02:52:49;15.32;;;6.72;;
35990;SDS011;22064;42.672;23.282;2023-05-10T02:55:21;12.60;;;6.50;;
35990;SDS011;22064;42.672;23.282;2023-05-10T02:57:51;13.07;;;6.60;;
35990;SDS011;22064;42.672;23.282;2023-05-10T03:00:23;14.80;;;7.10;;
35990;SDS011;22064;42.672;23.282;2023-05-10T03:02:50;15.60;;;7.43;;
35990;SDS011;22064;42.672;23.282;2023-05-10T03:05:16;13.45;;;6.97;;
35990;SDS011;22064;42.672;23.282;2023-05-10T03:07:42;13.52;;;7.38;;
35990;SDS011;22064;42.672;23.282;2023-05-10T03:10:09;14.02;;;6.93;;
35990;SDS011;22064;42.672;23.282;2023-05-10T03:18:01;13.18;;;7.40;;
35990;SDS011;22064;42.672;23.282;2023-05-10T03:20:41;14.80;;;7.65;;
35990;SDS011;22064;42.672;23.282;2023-05-10T03:26:27;14.90;;;6.93;;
35990;SDS011;22064;42.672;23.282;2023-05-10T03:29:03;13.52;;;7.50;;
35990;SDS011;22064;42.672;23.282;2023-05-10T03:31:30;14.48;;;7.15;;
35990;SDS011;22064;42.672;23.282;2023-05-10T03:33:57;13.75;;;7.05;;
35990;SDS011;22064;42.672;23.282;2023-05-10T03:36:25;14.95;;;7.50;;
35990;SDS011;22064;42.672;23.282;2023-05-10T03:38:51;13.05;;;7.03;;
35990;SDS011;22064;42.672;23.282;2023-05-10T03:41:17;14.68;;;7.10;;
35990;SDS011;22064;42.672;23.282;2023-05-10T03:43:43;14.30;;;7.28;;
35990;SDS011;22064;42.672;23.282;2023-05-10T03:46:09;15.50;;;7.00;;
35990;SDS011;22064;42.672;23.282;2023-05-10T03:48:35;12.25;;;6.32;;
35990;SDS011;22064;42.672;23.282;2023-05-10T03:51:01;12.23;;;6.88;;
35990;SDS011;22064;42.672;23.282;2023-05-10T03:53:27;11.93;;;6.53;;
35990;SDS011;22064;42.672;23.282;2023-05-10T03:55:53;11.95;;;6.53;;
35990;SDS011;22064;42.672;23.282;2023-05-10T03:58:19;10.88;;;6.32;;
35990;SDS011;22064;42.672;23.282;2023-05-10T04:00:45;10.55;;;5.78;;
35990;SDS011;22064;42.672;23.282;2023-05-10T04:03:12;12.05;;;6.07;;
35990;SDS011;22064;42.672;23.282;2023-05-10T04:05:38;12.80;;;5.93;;
35990;SDS011;22064;42.672;23.282;2023-05-10T04:08:05;12.82;;;6.60;;
35990;SDS011;22064;42.672;23.282;2023-05-10T04:10:31;13.10;;;6.72;;
35990;SDS011;22064;42.672;23.282;2023-05-10T04:12:57;11.77;;;6.43;;
35990;SDS011;22064;42.672;23.282;2023-05-10T04:15:23;12.30;;;6.20;;
35990;SDS011;22064;42.672;23.282;2023-05-10T04:17:49;13.48;;;7.13;;
35990;SDS011;22064;42.672;23.282;2023-05-10T04:20:15;10.43;;;6.10;;
35990;SDS011;22064;42.672;23.282;2023-05-10T04:22:41;15.18;;;7.28;;
35990;SDS011;22064;42.672;23.282;2023-05-10T04:25:08;14.07;;;7.60;;
35990;SDS011;22064;42.672;23.282;2023-05-10T04:27:34;12.73;;;7.00;;
35990;SDS011;22064;42.672;23.282;2023-05-10T04:30:00;12.43;;;6.38;;
35990;SDS011;22064;42.672;23.282;2023-05-10T04:32:26;10.60;;;5.85;;
35990;SDS011;22064;42.672;23.282;2023-05-10T04:34:52;11.25;;;6.45;;
35990;SDS011;22064;42.672;23.282;2023-05-10T04:37:18;12.25;;;6.53;;
35990;SDS011;22064;42.672;23.282;2023-05-10T04:39:45;14.40;;;6.72;;
35990;SDS011;22064;42.672;23.282;2023-05-10T04:42:11;12.68;;;6.72;;
35990;SDS011;22064;42.672;23.282;2023-05-10T04:44:37;12.68;;;6.65;;
35990;SDS011;22064;42.672;23.282;2023-05-10T04:47:03;14.88;;;7.85;;
35990;SDS011;22064;42.672;23.282;2023-05-10T04:49:29;14.30;;;7.40;;
35990;SDS011;22064;42.672;23.282;2023-05-10T04:51:55;13.48;;;7.35;;
35990;SDS011;22064;42.672;23.282;2023-05-10T04:54:21;11.68;;;6.88;;
35990;SDS011;22064;42.672;23.282;2023-05-10T04:56:47;14.10;;;7.35;;
35990;SDS011;22064;42.672;23.282;2023-05-10T04:59:13;14.23;;;7.53;;
35990;SDS011;22064;42.672;23.282;2023-05-10T05:01:39;13.23;;;7.00;;
35990;SDS011;22064;42.672;23.282;2023-05-10T05:04:05;14.18;;;7.28;;
35990;SDS011;22064;42.672;23.282;2023-05-10T05:06:32;13.27;;;7.45;;
35990;SDS011;22064;42.672;23.282;2023-05-10T05:08:58;13.95;;;7.30;;
35990;SDS011;22064;42.672;23.282;2023-05-10T05:11:24;12.52;;;7.32;;
35990;SDS011;22064;42.672;23.282;2023-05-10T05:13:51;14.25;;;7.72;;
35990;SDS011;22064;42.672;23.282;2023-05-10T05:16:17;11.23;;;6.85;;
35990;SDS011;22064;42.672;23.282;2023-05-10T05:18:43;14.50;;;7.47;;
35990;SDS011;22064;42.672;23.282;2023-05-10T05:21:15;14.27;;;7.20;;
35990;SDS011;22064;42.672;23.282;2023-05-10T05:23:45;15.23;;;7.90;;
35990;SDS011;22064;42.672;23.282;2023-05-10T05:26:11;15.77;;;8.10;;
35990;SDS011;22064;42.672;23.282;2023-05-10T05:28:38;14.20;;;7.75;;
35990;SDS011;22064;42.672;23.282;2023-05-10T05:31:04;14.90;;;8.00;;
35990;SDS011;22064;42.672;23.282;2023-05-10T05:33:31;16.75;;;8.23;;
35990;SDS011;22064;42.672;23.282;2023-05-10T05:35:56;15.35;;;8.30;;
35990;SDS011;22064;42.672;23.282;2023-05-10T05:38:22;15.35;;;8.70;;
35990;SDS011;22064;42.672;23.282;2023-05-10T05:40:49;15.68;;;8.95;;
35990;SDS011;22064;42.672;23.282;2023-05-10T05:43:15;17.38;;;8.52;;
35990;SDS011;22064;42.672;23.282;2023-05-10T05:45:41;15.90;;;8.40;;
35990;SDS011;22064;42.672;23.282;2023-05-10T05:48:06;15.40;;;8.07;;
35990;SDS011;22064;42.672;23.282;2023-05-10T05:50:32;17.63;;;8.75;;
35990;SDS011;22064;42.672;23.282;2023-05-10T05:52:58;16.92;;;8.68;;
35990;SDS011;22064;42.672;23.282;2023-05-10T05:55:24;18.35;;;9.95;;
35990;SDS011;22064;42.672;23.282;2023-05-10T05:57:51;17.85;;;9.32;;
35990;SDS011;22064;42.672;23.282;2023-05-10T06:00:17;22.20;;;9.80;;
35990;SDS011;22064;42.672;23.282;2023-05-10T06:02:44;18.55;;;9.95;;
35990;SDS011;22064;42.672;23.282;2023-05-10T06:05:10;20.95;;;10.50;;
35990;SDS011;22064;42.672;23.282;2023-05-10T06:07:35;19.02;;;10.60;;
35990;SDS011;22064;42.672;23.282;2023-05-10T06:10:01;19.23;;;9.73;;
35990;SDS011;22064;42.672;23.282;2023-05-10T06:12:28;20.63;;;11.13;;
35990;SDS011;22064;42.672;23.282;2023-05-10T06:14:54;22.40;;;10.65;;
35990;SDS011;22064;42.672;23.282;2023-05-10T06:17:20;26.45;;;10.75;;
35990;SDS011;22064;42.672;23.282;2023-05-10T06:19:46;20.98;;;10.32;;
35990;SDS011;22064;42.672;23.282;2023-05-10T06:22:12;19.33;;;9.75;;
35990;SDS011;22064;42.672;23.282;2023-05-10T06:24:38;21.98;;;11.32;;
35990;SDS011;22064;42.672;23.282;2023-05-10T06:27:05;20.80;;;10.60;;
35990;SDS011;22064;42.672;23.282;2023-05-10T06:29:32;23.73;;;10.70;;
35990;SDS011;22064;42.672;23.282;2023-05-10T06:31:58;20.90;;;10.95;;
35990;SDS011;22064;42.672;23.282;2023-05-10T06:34:24;22.52;;;11.13;;
35990;SDS011;22064;42.672;23.282;2023-05-10T06:36:50;21.75;;;10.50;;
35990;SDS011;22064;42.672;23.282;2023-05-10T06:39:16;24.75;;;11.27;;
35990;SDS011;22064;42.672;23.282;2023-05-10T06:41:42;19.77;;;10.27;;
35990;SDS011;22064;42.672;23.282;2023-05-10T06:44:08;20.20;;;10.40;;
35990;SDS011;22064;42.672;23.282;2023-05-10T06:46:34;20.70;;;9.88;;
35990;SDS011;22064;42.672;23.282;2023-05-10T06:49:00;22.10;;;11.20;;
35990;SDS011;22064;42.672;23.282;2023-05-10T06:51:26;20.67;;;10.48;;
35990;SDS011;22064;42.672;23.282;2023-05-10T06:53:52;19.85;;;9.90;;
35990;SDS011;22064;42.672;23.282;2023-05-10T06:56:18;19.17;;;10.27;;
35990;SDS011;22064;42.672;23.282;2023-05-10T06:58:47;25.00;;;10.88;;
35990;SDS011;22064;42.672;23.282;2023-05-10T07:01:14;20.58;;;10.32;;
35990;SDS011;22064;42.672;23.282;2023-05-10T07:03:40;17.83;;;9.32;;
35990;SDS011;22064;42.672;23.282;2023-05-10T07:06:06;19.15;;;9.55;;
35990;SDS011;22064;42.672;23.282;2023-05-10T07:08:33;20.10;;;9.65;;
35990;SDS011;22064;42.672;23.282;2023-05-10T07:11:02;21.15;;;10.65;;
35990;SDS011;22064;42.672;23.282;2023-05-10T07:13:30;20.08;;;10.38;;
35990;SDS011;22064;42.672;23.282;2023-05-10T07:15:57;21.10;;;10.50;;
35990;SDS011;22064;42.672;23.282;2023-05-10T07:18:24;20.70;;;10.18;;
35990;SDS011;22064;42.672;23.282;2023-05-10T07:20:50;19.25;;;9.63;;
35990;SDS011;22064;42.672;23.282;2023-05-10T07:23:16;18.17;;;10.25;;
35990;SDS011;22064;42.672;23.282;2023-05-10T07:25:46;18.97;;;10.13;;
35990;SDS011;22064;42.672;23.282;2023-05-10T07:28:13;19.95;;;9.88;;
35990;SDS011;22064;42.672;23.282;2023-05-10T07:30:40;21.17;;;10.32;;
35990;SDS011;22064;42.672;23.282;2023-05-10T07:33:07;19.35;;;10.25;;
35990;SDS011;22064;42.672;23.282;2023-05-10T07:35:34;17.85;;;9.98;;
35990;SDS011;22064;42.672;23.282;2023-05-10T07:38:00;20.42;;;9.82;;
35990;SDS011;22064;42.672;23.282;2023-05-10T07:40:27;21.98;;;10.80;;
35990;SDS011;22064;42.672;23.282;2023-05-10T07:42:53;23.35;;;10.60;;
35990;SDS011;22064;42.672;23.282;2023-05-10T07:45:19;20.60;;;10.38;;
35990;SDS011;22064;42.672;23.282;2023-05-10T07:47:45;19.08;;;10.35;;
35990;SDS011;22064;42.672;23.282;2023-05-10T07:50:11;21.02;;;11.02;;
35990;SDS011;22064;42.672;23.282;2023-05-10T07:52:37;19.70;;;10.23;;
35990;SDS011;22064;42.672;23.282;2023-05-10T07:55:03;20.90;;;10.70;;
35990;SDS011;22064;42.672;23.282;2023-05-10T07:57:29;21.77;;;11.15;;
35990;SDS011;22064;42.672;23.282;2023-05-10T07:59:56;19.98;;;10.60;;
35990;SDS011;22064;42.672;23.282;2023-05-10T08:02:22;20.80;;;10.65;;
35990;SDS011;22064;42.672;23.282;2023-05-10T08:04:48;22.70;;;11.05;;
35990;SDS011;22064;42.672;23.282;2023-05-10T08:07:14;21.98;;;12.70;;
35990;SDS011;22064;42.672;23.282;2023-05-10T08:09:39;24.35;;;12.52;;
35990;SDS011;22064;42.672;23.282;2023-05-10T08:12:05;22.60;;;11.82;;
35990;SDS011;22064;42.672;23.282;2023-05-10T08:14:31;20.48;;;10.93;;
35990;SDS011;22064;42.672;23.282;2023-05-10T08:16:57;18.48;;;10.27;;
35990;SDS011;22064;42.672;23.282;2023-05-10T08:19:23;25.08;;;11.32;;
35990;SDS011;22064;42.672;23.282;2023-05-10T08:21:49;22.02;;;11.40;;
35990;SDS011;22064;42.672;23.282;2023-05-10T08:24:15;23.02;;;11.52;;
35990;SDS011;22064;42.672;23.282;2023-05-10T08:26:41;22.13;;;12.20;;
35990;SDS011;22064;42.672;23.282;2023-05-10T08:29:07;19.42;;;11.07;;
35990;SDS011;22064;42.672;23.282;2023-05-10T08:31:32;22.40;;;11.57;;
35990;SDS011;22064;42.672;23.282;2023-05-10T08:33:58;20.58;;;11.25;;
35990;SDS011;22064;42.672;23.282;2023-05-10T08:36:24;24.40;;;12.50;;
35990;SDS011;22064;42.672;23.282;2023-05-10T08:38:50;22.98;;;11.65;;
35990;SDS011;22064;42.672;23.282;2023-05-10T08:41:19;21.00;;;11.80;;
35990;SDS011;22064;42.672;23.282;2023-05-10T08:43:46;22.35;;;11.88;;
35990;SDS011;22064;42.672;23.282;2023-05-10T08:46:15;18.58;;;10.15;;
35990;SDS011;22064;42.672;23.282;2023-05-10T08:48:45;20.52;;;11.00;;
35990;SDS011;22064;42.672;23.282;2023-05-10T08:51:18;21.45;;;11.88;;
35990;SDS011;22064;42.672;23.282;2023-05-10T08:53:47;21.38;;;11.63;;
35990;SDS011;22064;42.672;23.282;2023-05-10T08:56:13;22.48;;;11.25;;
35990;SDS011;22064;42.672;23.282;2023-05-10T08:58:41;23.98;;;12.15;;
35990;SDS011;22064;42.672;23.282;2023-05-10T09:01:07;21.50;;;12.48;;
35990;SDS011;22064;42.672;23.282;2023-05-10T09:03:35;21.52;;;11.80;;
35990;SDS011;22064;42.672;23.282;2023-05-10T09:06:01;20.63;;;11.02;;
35990;SDS011;22064;42.672;23.282;2023-05-10T09:08:26;19.05;;;11.88;;
35990;SDS011;22064;42.672;23.282;2023-05-10T09:10:53;21.65;;;12.65;;
35990;SDS011;22064;42.672;23.282;2023-05-10T09:13:24;19.95;;;11.02;;
35990;SDS011;22064;42.672;23.282;2023-05-10T09:15:51;19.27;;;10.40;;
35990;SDS011;22064;42.672;23.282;2023-05-10T09:18:18;22.15;;;12.02;;
35990;SDS011;22064;42.672;23.282;2023-05-10T09:20:44;20.38;;;11.68;;
35990;SDS011;22064;42.672;23.282;2023-05-10T09:23:11;21.15;;;12.70;;
35990;SDS011;22064;42.672;23.282;2023-05-10T09:25:37;18.65;;;11.45;;
35990;SDS011;22064;42.672;23.282;2023-05-10T09:28:07;18.98;;;11.18;;
35990;SDS011;22064;42.672;23.282;2023-05-10T09:30:35;19.38;;;12.10;;
35990;SDS011;22064;42.672;23.282;2023-05-10T09:33:01;25.42;;;12.05;;
35990;SDS011;22064;42.672;23.282;2023-05-10T09:35:28;17.95;;;10.25;;
35990;SDS011;22064;42.672;23.282;2023-05-10T09:37:56;18.60;;;10.57;;
35990;SDS011;22064;42.672;23.282;2023-05-10T09:40:24;21.20;;;10.65;;
35990;SDS011;22064;42.672;23.282;2023-05-10T09:42:55;16.60;;;9.63;;
35990;SDS011;22064;42.672;23.282;2023-05-10T09:45:23;18.90;;;10.18;;
35990;SDS011;22064;42.672;23.282;2023-05-10T09:47:50;18.10;;;10.18;;
35990;SDS011;22064;42.672;23.282;2023-05-10T09:50:16;20.80;;;9.70;;
35990;SDS011;22064;42.672;23.282;2023-05-10T09:52:49;19.55;;;10.48;;
35990;SDS011;22064;42.672;23.282;2023-05-10T09:55:26;17.67;;;9.52;;
35990;SDS011;22064;42.672;23.282;2023-05-10T09:58:03;17.73;;;9.98;;
35990;SDS011;22064;42.672;23.282;2023-05-10T10:00:39;16.52;;;9.43;;
35990;SDS011;22064;42.672;23.282;2023-05-10T10:03:07;17.00;;;10.45;;
35990;SDS011;22064;42.672;23.282;2023-05-10T10:05:39;16.52;;;9.10;;
35990;SDS011;22064;42.672;23.282;2023-05-10T10:08:07;18.08;;;9.73;;
35990;SDS011;22064;42.672;23.282;2023-05-10T10:10:33;17.23;;;9.90;;
35990;SDS011;22064;42.672;23.282;2023-05-10T10:12:59;16.80;;;10.10;;
35990;SDS011;22064;42.672;23.282;2023-05-10T10:15:26;17.58;;;10.55;;
35990;SDS011;22064;42.672;23.282;2023-05-10T10:17:52;19.15;;;10.45;;
35990;SDS011;22064;42.672;23.282;2023-05-10T10:20:21;15.88;;;9.93;;
35990;SDS011;22064;42.672;23.282;2023-05-10T10:22:48;17.77;;;9.65;;
35990;SDS011;22064;42.672;23.282;2023-05-10T10:25:14;20.52;;;10.05;;
35990;SDS011;22064;42.672;23.282;2023-05-10T10:30:47;16.92;;;8.98;;
35990;SDS011;22064;42.672;23.282;2023-05-10T10:36:04;19.30;;;8.95;;
35990;SDS011;22064;42.672;23.282;2023-05-10T10:52:13;16.92;;;8.93;;
35990;SDS011;22064;42.672;23.282;2023-05-10T11:00:27;16.13;;;8.18;;
35990;SDS011;22064;42.672;23.282;2023-05-10T11:08:06;14.93;;;8.45;;
35990;SDS011;22064;42.672;23.282;2023-05-10T11:10:34;15.80;;;8.48;;
35990;SDS011;22064;42.672;23.282;2023-05-10T11:13:01;15.35;;;8.55;;
35990;SDS011;22064;42.672;23.282;2023-05-10T11:15:29;14.00;;;8.55;;
35990;SDS011;22064;42.672;23.282;2023-05-10T11:17:59;16.70;;;8.75;;
35990;SDS011;22064;42.672;23.282;2023-05-10T11:20:28;17.27;;;8.82;;
35990;SDS011;22064;42.672;23.282;2023-05-10T11:23:11;13.50;;;7.97;;
35990;SDS011;22064;42.672;23.282;2023-05-10T11:25:42;17.80;;;9.02;;
35990;SDS011;22064;42.672;23.282;2023-05-10T11:28:14;16.23;;;8.48;;
35990;SDS011;22064;42.672;23.282;2023-05-10T11:30:43;18.25;;;8.40;;
35990;SDS011;22064;42.672;23.282;2023-05-10T11:33:14;15.18;;;8.00;;
35990;SDS011;22064;42.672;23.282;2023-05-10T11:35:42;16.23;;;8.50;;
35990;SDS011;22064;42.672;23.282;2023-05-10T11:38:08;18.10;;;8.68;;
35990;SDS011;22064;42.672;23.282;2023-05-10T11:40:35;16.52;;;8.00;;
35990;SDS011;22064;42.672;23.282;2023-05-10T11:43:02;19.13;;;8.25;;
35990;SDS011;22064;42.672;23.282;2023-05-10T11:45:31;14.57;;;7.70;;
35990;SDS011;22064;42.672;23.282;2023-05-10T11:47:58;16.35;;;8.05;;
35990;SDS011;22064;42.672;23.282;2023-05-10T11:50:25;14.88;;;7.90;;
35990;SDS011;22064;42.672;23.282;2023-05-10T11:52:52;16.40;;;8.40;;
35990;SDS011;22064;42.672;23.282;2023-05-10T11:55:22;14.40;;;7.75;;
35990;SDS011;22064;42.672;23.282;2023-05-10T11:57:53;15.98;;;8.10;;
35990;SDS011;22064;42.672;23.282;2023-05-10T12:00:20;18.30;;;9.02;;
35990;SDS011;22064;42.672;23.282;2023-05-10T12:02:47;16.23;;;8.50;;
35990;SDS011;22064;42.672;23.282;2023-05-10T12:05:13;16.88;;;8.88;;
35990;SDS011;22064;42.672;23.282;2023-05-10T12:07:40;17.88;;;8.90;;
35990;SDS011;22064;42.672;23.282;2023-05-10T12:10:06;19.50;;;9.10;;
35990;SDS011;22064;42.672;23.282;2023-05-10T12:12:38;17.73;;;9.23;;
35990;SDS011;22064;42.672;23.282;2023-05-10T12:15:05;16.08;;;9.50;;
35990;SDS011;22064;42.672;23.282;2023-05-10T12:17:37;15.40;;;9.13;;
35990;SDS011;22064;42.672;23.282;2023-05-10T12:20:16;18.63;;;9.13;;
35990;SDS011;22064;42.672;23.282;2023-05-10T12:22:54;20.38;;;10.00;;
35990;SDS011;22064;42.672;23.282;2023-05-10T12:25:22;16.88;;;9.15;;
35990;SDS011;22064;42.672;23.282;2023-05-10T12:27:53;17.00;;;9.77;;
35990;SDS011;22064;42.672;23.282;2023-05-10T12:30:22;17.42;;;9.65;;
35990;SDS011;22064;42.672;23.282;2023-05-10T12:32:48;17.27;;;9.70;;
35990;SDS011;22064;42.672;23.282;2023-05-10T12:35:14;21.35;;;9.77;;
35990;SDS011;22064;42.672;23.282;2023-05-10T12:37:43;17.90;;;9.73;;
35990;SDS011;22064;42.672;23.282;2023-05-10T12:40:10;18.85;;;9.75;;
35990;SDS011;22064;42.672;23.282;2023-05-10T12:42:37;17.67;;;9.88;;
35990;SDS011;22064;42.672;23.282;2023-05-10T12:45:04;17.58;;;9.82;;
35990;SDS011;22064;42.672;23.282;2023-05-10T12:47:31;18.33;;;10.20;;
35990;SDS011;22064;42.672;23.282;2023-05-10T12:49:59;17.13;;;9.80;;
35990;SDS011;22064;42.672;23.282;2023-05-10T12:52:26;18.58;;;10.10;;
35990;SDS011;22064;42.672;23.282;2023-05-10T12:54:53;20.17;;;9.07;;
35990;SDS011;22064;42.672;23.282;2023-05-10T12:57:22;18.98;;;10.45;;
35990;SDS011;22064;42.672;23.282;2023-05-10T12:59:48;19.13;;;10.48;;
35990;SDS011;22064;42.672;23.282;2023-05-10T13:02:14;19.35;;;10.27;;
35990;SDS011;22064;42.672;23.282;2023-05-10T13:04:43;18.83;;;10.45;;
35990;SDS011;22064;42.672;23.282;2023-05-10T13:07:10;20.25;;;10.65;;
35990;SDS011;22064;42.672;23.282;2023-05-10T13:09:36;17.05;;;10.45;;
35990;SDS011;22064;42.672;23.282;2023-05-10T13:12:02;18.48;;;10.02;;
35990;SDS011;22064;42.672;23.282;2023-05-10T13:14:28;20.73;;;10.25;;
35990;SDS011;22064;42.672;23.282;2023-05-10T13:16:55;19.27;;;10.10;;
35990;SDS011;22064;42.672;23.282;2023-05-10T13:19:21;20.70;;;10.50;;
35990;SDS011;22064;42.672;23.282;2023-05-10T13:21:47;18.75;;;10.00;;
35990;SDS011;22064;42.672;23.282;2023-05-10T13:24:13;18.83;;;10.57;;
35990;SDS011;22064;42.672;23.282;2023-05-10T13:26:39;17.80;;;10.27;;
35990;SDS011;22064;42.672;23.282;2023-05-10T13:29:06;18.58;;;9.73;;
35990;SDS011;22064;42.672;23.282;2023-05-10T13:31:32;20.17;;;9.70;;
35990;SDS011;22064;42.672;23.282;2023-05-10T13:33:59;19.45;;;9.93;;
35990;SDS011;22064;42.672;23.282;2023-05-10T13:36:25;19.73;;;10.50;;
35990;SDS011;22064;42.672;23.282;2023-05-10T13:38:50;20.58;;;9.85;;
35990;SDS011;22064;42.672;23.282;2023-05-10T13:41:16;18.80;;;10.25;;
35990;SDS011;22064;42.672;23.282;2023-05-10T13:43:43;20.58;;;10.63;;
35990;SDS011;22064;42.672;23.282;2023-05-10T13:46:09;20.95;;;10.10;;
35990;SDS011;22064;42.672;23.282;2023-05-10T13:48:35;19.20;;;10.50;;
35990;SDS011;22064;42.672;23.282;2023-05-10T13:51:02;17.95;;;9.77;;
35990;SDS011;22064;42.672;23.282;2023-05-10T13:53:29;18.75;;;9.68;;
35990;SDS011;22064;42.672;23.282;2023-05-10T13:55:55;19.60;;;9.73;;
35990;SDS011;22064;42.672;23.282;2023-05-10T13:58:20;16.92;;;9.38;;
35990;SDS011;22064;42.672;23.282;2023-05-10T14:00:46;17.38;;;9.82;;
35990;SDS011;22064;42.672;23.282;2023-05-10T14:03:13;19.38;;;10.18;;
35990;SDS011;22064;42.672;23.282;2023-05-10T14:05:39;17.65;;;9.80;;
35990;SDS011;22064;42.672;23.282;2023-05-10T14:08:05;18.80;;;10.25;;
35990;SDS011;22064;42.672;23.282;2023-05-10T14:10:31;19.95;;;11.13;;
35990;SDS011;22064;42.672;23.282;2023-05-10T14:12:56;18.80;;;9.70;;
35990;SDS011;22064;42.672;23.282;2023-05-10T14:15:22;18.40;;;9.63;;
35990;SDS011;22064;42.672;23.282;2023-05-10T14:17:48;16.40;;;8.98;;
35990;SDS011;22064;42.672;23.282;2023-05-10T14:20:14;19.15;;;10.10;;
35990;SDS011;22064;42.672;23.282;2023-05-10T14:22:40;17.30;;;9.05;;
35990;SDS011;22064;42.672;23.282;2023-05-10T14:25:06;17.95;;;9.98;;
35990;SDS011;22064;42.672;23.282;2023-05-10T14:27:32;18.55;;;9.70;;
35990;SDS011;22064;42.672;23.282;2023-05-10T14:29:58;19.85;;;9.82;;
35990;SDS011;22064;42.672;23.282;2023-05-10T14:32:24;16.27;;;9.18;;
35990;SDS011;22064;42.672;23.282;2023-05-10T14:34:52;17.70;;;9.57;;
35990;SDS011;22064;42.672;23.282;2023-05-10T14:37:18;18.52;;;9.60;;
35990;SDS011;22064;42.672;23.282;2023-05-10T14:39:44;17.60;;;10.45;;
35990;SDS011;22064;42.672;23.282;2023-05-10T14:42:11;17.55;;;10.10;;
35990;SDS011;22064;42.672;23.282;2023-05-10T14:44:37;19.05;;;10.45;;
35990;SDS011;22064;42.672;23.282;2023-05-10T14:47:03;19.33;;;9.90;;
35990;SDS011;22064;42.672;23.282;2023-05-10T14:49:29;19.35;;;10.30;;
35990;SDS011;22064;42.672;23.282;2023-05-10T14:51:55;19.52;;;10.27;;
35990;SDS011;22064;42.672;23.282;2023-05-10T14:54:21;20.88;;;10.27;;
35990;SDS011;22064;42.672;23.282;2023-05-10T14:56:46;18.80;;;10.20;;
35990;SDS011;22064;42.672;23.282;2023-05-10T14:59:15;17.95;;;9.73;;
35990;SDS011;22064;42.672;23.282;2023-05-10T15:01:41;18.70;;;9.70;;
35990;SDS011;22064;42.672;23.282;2023-05-10T15:04:07;18.55;;;9.25;;
35990;SDS011;22064;42.672;23.282;2023-05-10T15:06:34;17.92;;;9.50;;
35990;SDS011;22064;42.672;23.282;2023-05-10T15:09:01;18.45;;;9.88;;
35990;SDS011;22064;42.672;23.282;2023-05-10T15:11:28;18.17;;;9.38;;
35990;SDS011;22064;42.672;23.282;2023-05-10T15:13:54;15.75;;;8.80;;
35990;SDS011;22064;42.672;23.282;2023-05-10T15:16:20;19.35;;;9.07;;